sensor_id;sensor_type;location;lat;lon;timestamp;pressure;altitude;pressure_sealevel;temperature;humidity
69306;BME280;56427;51.580;4.656;2023-02-28T00:00:43;103095.13;;;0.73;100.00
69306;BME280;56427;51.580;4.656;2023-02-28T00:03:08;103101.06;;;0.77;100.00
69306;BME280;56427;51.580;4.656;2023-02-28T00:05:34;103101.97;;;0.67;100.00
69306;BME280;56427;51.580;4.656;2023-02-28T00:07:59;103108.03;;;0.43;100.00
69306;BME280;56427;51.580;4.656;2023-02-28T00:10:28;103112.31;;;0.38;100.00
69306;BME280;56427;51.580;4.656;2023-02-28T00:12:55;103105.44;;;0.58;100.00
69306;BME280;56427;51.580;4.656;2023-02-28T00:15:22;103097.75;;;0.60;100.00
69306;BME280;56427;51.580;4.656;2023-02-28T00:17:48;103102.88;;;0.60;100.00
69306;BME280;56427;51.580;4.656;2023-02-28T00:20:13;103101.22;;;0.48;100.00
69306;BME280;56427;51.580;4.656;2023-02-28T00:22:41;103100.31;;;0.60;100.00
69306;BME280;56427;51.580;4.656;2023-02-28T00:25:07;103102.06;;;0.44;100.00
69306;BME280;56427;51.580;4.656;2023-02-28T00:27:35;103097.06;;;0.16;100.00
69306;BME280;56427;51.580;4.656;2023-02-28T00:30:01;103096.06;;;0.57;100.00
69306;BME280;56427;51.580;4.656;2023-02-28T00:32:26;103103.78;;;0.45;100.00
69306;BME280;56427;51.580;4.656;2023-02-28T00:34:52;103096.13;;;0.40;100.00
69306;BME280;56427;51.580;4.656;2023-02-28T00:37:17;103099.53;;;0.39;100.00
69306;BME280;56427;51.580;4.656;2023-02-28T00:39:43;103103.78;;;0.45;100.00
69306;BME280;56427;51.580;4.656;2023-02-28T00:42:08;103091.84;;;0.47;100.00
69306;BME280;56427;51.580;4.656;2023-02-28T00:44:33;103088.31;;;0.74;100.00
69306;BME280;56427;51.580;4.656;2023-02-28T00:47:00;103096.97;;;0.44;100.00
69306;BME280;56427;51.580;4.656;2023-02-28T00:49:26;103091.84;;;0.44;100.00
69306;BME280;56427;51.580;4.656;2023-02-28T00:51:53;103081.63;;;0.44;100.00
69306;BME280;56427;51.580;4.656;2023-02-28T00:54:19;103090.19;;;0.40;100.00
69306;BME280;56427;51.580;4.656;2023-02-28T00:56:45;103085.06;;;0.41;100.00
69306;BME280;56427;51.580;4.656;2023-02-28T00:59:15;103089.31;;;0.39;100.00
69306;BME280;56427;51.580;4.656;2023-02-28T01:01:41;103087.66;;;0.32;100.00
69306;BME280;56427;51.580;4.656;2023-02-28T01:04:06;103091.88;;;0.34;100.00
69306;BME280;56427;51.580;4.656;2023-02-28T01:06:32;103095.34;;;0.24;100.00
69306;BME280;56427;51.580;4.656;2023-02-28T01:08:59;103097.03;;;0.33;100.00
69306;BME280;56427;51.580;4.656;2023-02-28T01:11:24;103085.84;;;0.54;100.00
69306;BME280;56427;51.580;4.656;2023-02-28T01:13:50;103090.03;;;0.67;100.00
69306;BME280;56427;51.580;4.656;2023-02-28T01:16:15;103103.59;;;0.80;100.00
69306;BME280;56427;51.580;4.656;2023-02-28T01:18:41;103108.66;;;0.89;100.00
69306;BME280;56427;51.580;4.656;2023-02-28T01:21:12;103097.69;;;0.69;100.00
69306;BME280;56427;51.580;4.656;2023-02-28T01:23:38;103092.53;;;0.77;100.00
69306;BME280;56427;51.580;4.656;2023-02-28T01:26:13;103089.06;;;0.85;100.00
69306;BME280;56427;51.580;4.656;2023-02-28T01:28:39;103102.75;;;0.81;100.00
69306;BME280;56427;51.580;4.656;2023-02-28T01:31:08;103102.66;;;0.92;100.00
69306;BME280;56427;51.580;4.656;2023-02-28T01:33:34;103102.00;;;0.61;100.00
69306;BME280;56427;51.580;4.656;2023-02-28T01:36:02;103087.53;;;0.64;100.00
69306;BME280;56427;51.580;4.656;2023-02-28T01:38:28;103095.00;;;0.92;100.00
69306;BME280;56427;51.580;4.656;2023-02-28T01:40:54;103096.84;;;0.71;100.00
69306;BME280;56427;51.580;4.656;2023-02-28T01:43:31;103087.47;;;0.70;100.00
69306;BME280;56427;51.580;4.656;2023-02-28T01:45:58;103091.75;;;0.65;100.00
69306;BME280;56427;51.580;4.656;2023-02-28T01:48:36;103088.25;;;0.82;100.00
69306;BME280;56427;51.580;4.656;2023-02-28T01:51:06;103094.88;;;1.12;100.00
69306;BME280;56427;51.580;4.656;2023-02-28T01:53:38;103086.38;;;1.08;100.00
69306;BME280;56427;51.580;4.656;2023-02-28T01:56:08;103089.94;;;0.84;100.00
69306;BME280;56427;51.580;4.656;2023-02-28T01:58:36;103088.88;;;1.15;100.00
69306;BME280;56427;51.580;4.656;2023-02-28T02:01:02;103090.72;;;0.97;100.00
69306;BME280;56427;51.580;4.656;2023-02-28T02:03:29;103094.19;;;0.87;100.00
69306;BME280;56427;51.580;4.656;2023-02-28T02:05:55;103089.84;;;1.00;100.00
69306;BME280;56427;51.580;4.656;2023-02-28T02:08:25;103085.56;;;1.02;100.00
69306;BME280;56427;51.580;4.656;2023-02-28T02:10:57;103089.06;;;0.88;100.00
69306;BME280;56427;51.580;4.656;2023-02-28T02:13:33;103089.69;;;1.20;100.00
69306;BME280;56427;51.580;4.656;2023-02-28T02:16:15;103103.34;;;1.20;100.00
69306;BME280;56427;51.580;4.656;2023-02-28T02:18:54;103093.00;;;1.33;100.00
69306;BME280;56427;51.580;4.656;2023-02-28T02:27:11;103088.91;;;1.13;100.00
69306;BME280;56427;51.580;4.656;2023-02-28T02:38:11;103074.38;;;1.17;100.00
69306;BME280;56427;51.580;4.656;2023-02-28T02:46:19;103078.69;;;1.10;100.00
69306;BME280;56427;51.580;4.656;2023-02-28T02:48:46;103084.66;;;1.12;100.00
69306;BME280;56427;51.580;4.656;2023-02-28T02:51:16;103078.66;;;1.15;100.00
69306;BME280;56427;51.580;4.656;2023-02-28T02:53:55;103073.63;;;1.07;100.00
69306;BME280;56427;51.580;4.656;2023-02-28T02:56:27;103079.53;;;1.14;100.00
69306;BME280;56427;51.580;4.656;2023-02-28T02:58:57;103064.31;;;0.94;100.00
69306;BME280;56427;51.580;4.656;2023-02-28T03:01:26;103081.06;;;1.33;100.00
69306;BME280;56427;51.580;4.656;2023-02-28T03:03:56;103069.16;;;1.32;100.00
69306;BME280;56427;51.580;4.656;2023-02-28T03:06:22;103077.72;;;1.26;100.00
69306;BME280;56427;51.580;4.656;2023-02-28T03:08:47;103074.25;;;1.35;100.00
69306;BME280;56427;51.580;4.656;2023-02-28T03:11:15;103080.19;;;1.36;100.00
69306;BME280;56427;51.580;4.656;2023-02-28T03:19:02;103081.84;;;1.41;100.00
69306;BME280;56427;51.580;4.656;2023-02-28T03:24:54;103073.25;;;1.50;100.00
69306;BME280;56427;51.580;4.656;2023-02-28T03:27:28;103081.84;;;1.41;100.00
69306;BME280;56427;51.580;4.656;2023-02-28T03:30:24;103080.97;;;1.45;100.00
69306;BME280;56427;51.580;4.656;2023-02-28T03:33:14;103082.75;;;1.39;100.00
69306;BME280;56427;51.580;4.656;2023-02-28T03:35:59;103079.47;;;1.21;100.00
69306;BME280;56427;51.580;4.656;2023-02-28T03:38:38;103083.66;;;1.32;100.00
69306;BME280;56427;51.580;4.656;2023-02-28T03:41:13;103079.53;;;1.15;100.00
69306;BME280;56427;51.580;4.656;2023-02-28T03:43:45;103076.81;;;1.35;100.00
69306;BME280;56427;51.580;4.656;2023-02-28T03:46:16;103081.97;;;1.29;100.00
69306;BME280;56427;51.580;4.656;2023-02-28T03:51:19;103085.28;;;1.42;100.00
69306;BME280;56427;51.580;4.656;2023-02-28T03:54:08;103085.31;;;1.37;100.00
69306;BME280;56427;51.580;4.656;2023-02-28T03:56:49;103081.06;;;1.35;100.00
69306;BME280;56427;51.580;4.656;2023-02-28T03:59:53;103076.06;;;1.21;100.00
69306;BME280;56427;51.580;4.656;2023-02-28T04:02:19;103069.31;;;1.12;100.00
69306;BME280;56427;51.580;4.656;2023-02-28T04:04:45;103079.25;;;1.44;100.00
69306;BME280;56427;51.580;4.656;2023-02-28T04:07:13;103072.69;;;1.19;100.00
69306;BME280;56427;51.580;4.656;2023-02-28T04:09:39;103071.06;;;1.07;100.00
69306;BME280;56427;51.580;4.656;2023-02-28T04:12:05;103075.22;;;1.19;100.00
69306;BME280;56427;51.580;4.656;2023-02-28T04:14:30;103080.13;;;1.48;100.00
69306;BME280;56427;51.580;4.656;2023-02-28T04:16:56;103085.06;;;1.65;100.00
69306;BME280;56427;51.580;4.656;2023-02-28T04:19:21;103081.00;;;1.41;100.00
69306;BME280;56427;51.580;4.656;2023-02-28T04:21:52;103079.22;;;1.49;100.00
69306;BME280;56427;51.580;4.656;2023-02-28T04:24:23;103080.06;;;1.51;100.00
69306;BME280;56427;51.580;4.656;2023-02-28T04:26:51;103078.38;;;1.49;100.00
69306;BME280;56427;51.580;4.656;2023-02-28T04:31:51;103082.78;;;1.31;100.00
69306;BME280;56427;51.580;4.656;2023-02-28T04:34:19;103081.03;;;1.39;100.00
69306;BME280;56427;51.580;4.656;2023-02-28T04:36:46;103082.78;;;1.34;100.00
69306;BME280;56427;51.580;4.656;2023-02-28T04:39:15;103090.34;;;1.46;100.00
69306;BME280;56427;51.580;4.656;2023-02-28T04:41:41;103091.25;;;1.38;100.00
69306;BME280;56427;51.580;4.656;2023-02-28T04:44:06;103098.09;;;1.39;100.00
69306;BME280;56427;51.580;4.656;2023-02-28T04:46:31;103074.38;;;1.17;100.00
69306;BME280;56427;51.580;4.656;2023-02-28T04:48:57;103094.41;;;1.68;100.00
69306;BME280;56427;51.580;4.656;2023-02-28T04:51:23;103096.47;;;1.32;100.00
69306;BME280;56427;51.580;4.656;2023-02-28T04:53:48;103102.25;;;1.52;100.00
69306;BME280;56427;51.580;4.656;2023-02-28T04:56:15;103106.50;;;1.56;100.00
69306;BME280;56427;51.580;4.656;2023-02-28T04:58:41;103097.03;;;1.64;100.00
69306;BME280;56427;51.580;4.656;2023-02-28T05:03:43;103110.97;;;1.25;100.00
69306;BME280;56427;51.580;4.656;2023-02-28T05:06:10;103116.84;;;1.38;100.00
69306;BME280;56427;51.580;4.656;2023-02-28T05:08:36;103118.56;;;1.40;100.00
69306;BME280;56427;51.580;4.656;2023-02-28T05:11:01;103118.56;;;1.40;100.00
69306;BME280;56427;51.580;4.656;2023-02-28T05:13:27;103116.84;;;1.38;100.00
69306;BME280;56427;51.580;4.656;2023-02-28T05:15:53;103113.59;;;1.22;100.00
69306;BME280;56427;51.580;4.656;2023-02-28T05:18:19;103119.34;;;1.47;100.00
69306;BME280;56427;51.580;4.656;2023-02-28T05:20:44;103115.97;;;1.43;100.00
69306;BME280;56427;51.580;4.656;2023-02-28T05:23:14;103115.94;;;1.48;100.00
69306;BME280;56427;51.580;4.656;2023-02-28T05:25:40;103109.28;;;1.27;100.00
69306;BME280;56427;51.580;4.656;2023-02-28T05:28:06;103121.91;;;1.45;100.00
69306;BME280;56427;51.580;4.656;2023-02-28T05:30:32;103114.38;;;1.32;100.00
69306;BME280;56427;51.580;4.656;2023-02-28T05:32:58;103117.91;;;1.14;100.00
69306;BME280;56427;51.580;4.656;2023-02-28T05:35:26;103110.94;;;1.28;100.00
69306;BME280;56427;51.580;4.656;2023-02-28T05:37:52;103122.78;;;1.41;100.00
69306;BME280;56427;51.580;4.656;2023-02-28T05:40:18;103123.75;;;1.29;100.00
69306;BME280;56427;51.580;4.656;2023-02-28T05:42:45;103125.47;;;1.24;100.00
69306;BME280;56427;51.580;4.656;2023-02-28T05:45:11;103128.94;;;1.19;100.00
69306;BME280;56427;51.580;4.656;2023-02-28T05:47:36;103120.47;;;1.10;100.00
69306;BME280;56427;51.580;4.656;2023-02-28T05:50:03;103124.63;;;1.27;100.00
69306;BME280;56427;51.580;4.656;2023-02-28T05:52:28;103119.56;;;1.16;100.00
69306;BME280;56427;51.580;4.656;2023-02-28T05:54:55;103129.72;;;1.28;100.00
69306;BME280;56427;51.580;4.656;2023-02-28T05:57:20;103122.91;;;1.27;100.00
69306;BME280;56427;51.580;4.656;2023-02-28T05:59:46;103129.72;;;1.30;100.00
69306;BME280;56427;51.580;4.656;2023-02-28T06:02:16;103136.50;;;1.33;100.00
69306;BME280;56427;51.580;4.656;2023-02-28T06:04:42;103122.06;;;1.27;100.00
69306;BME280;56427;51.580;4.656;2023-02-28T06:07:08;103119.34;;;1.45;100.00
69306;BME280;56427;51.580;4.656;2023-02-28T06:09:33;103127.97;;;1.35;100.00
69306;BME280;56427;51.580;4.656;2023-02-28T06:12:00;103116.75;;;1.52;100.00
69306;BME280;56427;51.580;4.656;2023-02-28T06:14:25;103117.59;;;1.52;100.00
69306;BME280;56427;51.580;4.656;2023-02-28T06:16:53;103115.72;;;1.73;100.00
69306;BME280;56427;51.580;4.656;2023-02-28T06:19:19;103127.88;;;1.47;100.00
69306;BME280;56427;51.580;4.656;2023-02-28T06:21:44;103122.63;;;1.63;100.00
69306;BME280;56427;51.580;4.656;2023-02-28T06:24:10;103124.50;;;1.44;100.00
69306;BME280;56427;51.580;4.656;2023-02-28T06:26:36;103115.22;;;1.31;100.00
69306;BME280;56427;51.580;4.656;2023-02-28T06:29:01;103116.16;;;1.19;100.00
69306;BME280;56427;51.580;4.656;2023-02-28T06:31:27;103105.03;;;1.20;100.00
69306;BME280;56427;51.580;4.656;2023-02-28T06:33:55;103118.44;;;1.51;100.00
69306;BME280;56427;51.580;4.656;2023-02-28T06:36:24;103109.94;;;1.49;100.00
69306;BME280;56427;51.580;4.656;2023-02-28T06:38:50;103100.47;;;1.60;100.00
69306;BME280;56427;51.580;4.656;2023-02-28T06:41:21;103113.44;;;1.40;100.00
69306;BME280;56427;51.580;4.656;2023-02-28T06:43:48;103112.63;;;1.37;100.00
69306;BME280;56427;51.580;4.656;2023-02-28T06:46:14;103111.50;;;1.65;100.00
69306;BME280;56427;51.580;4.656;2023-02-28T06:48:40;103107.31;;;1.57;100.00
69306;BME280;56427;51.580;4.656;2023-02-28T06:51:12;103112.50;;;1.51;100.00
69306;BME280;56427;51.580;4.656;2023-02-28T06:53:38;103116.81;;;1.44;100.00
69306;BME280;56427;51.580;4.656;2023-02-28T06:56:09;103108.06;;;1.71;100.00
69306;BME280;56427;51.580;4.656;2023-02-28T06:58:35;103114.75;;;1.84;100.00
69306;BME280;56427;51.580;4.656;2023-02-28T07:01:01;103108.78;;;1.82;100.00
69306;BME280;56427;51.580;4.656;2023-02-28T07:03:27;103113.03;;;1.83;100.00
69306;BME280;56427;51.580;4.656;2023-02-28T07:05:52;103117.31;;;1.86;100.00
69306;BME280;56427;51.580;4.656;2023-02-28T07:08:18;103118.16;;;1.85;100.00
69306;BME280;56427;51.580;4.656;2023-02-28T07:10:43;103120.94;;;1.59;100.00
69306;BME280;56427;51.580;4.656;2023-02-28T07:13:09;103117.97;;;2.00;100.00
69306;BME280;56427;51.580;4.656;2023-02-28T07:15:36;103127.41;;;1.98;100.00
69306;BME280;56427;51.580;4.656;2023-02-28T07:18:02;103138.91;;;1.54;100.00
69306;BME280;56427;51.580;4.656;2023-02-28T07:20:28;103134.53;;;1.65;100.00
69306;BME280;56427;51.580;4.656;2023-02-28T07:22:54;103136.13;;;1.79;100.00
69306;BME280;56427;51.580;4.656;2023-02-28T07:25:23;103127.44;;;1.94;100.00
69306;BME280;56427;51.580;4.656;2023-02-28T07:27:49;103124.03;;;1.96;100.00
69306;BME280;56427;51.580;4.656;2023-02-28T07:30:15;103128.56;;;1.68;100.00
69306;BME280;56427;51.580;4.656;2023-02-28T07:32:40;103125.00;;;1.83;100.00
69306;BME280;56427;51.580;4.656;2023-02-28T07:35:06;103125.66;;;2.00;100.00
69306;BME280;56427;51.580;4.656;2023-02-28T07:37:31;103113.91;;;1.82;100.00
69306;BME280;56427;51.580;4.656;2023-02-28T07:40:07;103134.25;;;1.99;100.00
69306;BME280;56427;51.580;4.656;2023-02-28T07:42:34;103130.16;;;1.78;100.00
69306;BME280;56427;51.580;4.656;2023-02-28T07:45:00;103133.56;;;1.80;100.00
69306;BME280;56427;51.580;4.656;2023-02-28T07:47:25;103128.41;;;1.82;100.00
69306;BME280;56427;51.580;4.656;2023-02-28T07:49:51;103137.88;;;1.75;100.00
69306;BME280;56427;51.580;4.656;2023-02-28T07:52:16;103140.22;;;1.98;100.00
69306;BME280;56427;51.580;4.656;2023-02-28T07:54:42;103128.38;;;1.87;100.00
69306;BME280;56427;51.580;4.656;2023-02-28T07:57:07;103123.94;;;2.04;100.00
69306;BME280;56427;51.580;4.656;2023-02-28T07:59:35;103134.13;;;2.09;100.00
69306;BME280;56427;51.580;4.656;2023-02-28T08:02:01;103131.28;;;2.33;100.00
69306;BME280;56427;51.580;4.656;2023-02-28T08:04:27;103135.78;;;2.14;100.00
69306;BME280;56427;51.580;4.656;2023-02-28T08:06:52;103131.88;;;1.79;100.00
69306;BME280;56427;51.580;4.656;2023-02-28T08:09:18;103133.44;;;1.93;100.00
69306;BME280;56427;51.580;4.656;2023-02-28T08:11:44;103140.34;;;1.86;100.00
69306;BME280;56427;51.580;4.656;2023-02-28T08:14:09;103146.31;;;1.87;100.00
69306;BME280;56427;51.580;4.656;2023-02-28T08:16:35;103146.00;;;2.17;100.00
69306;BME280;56427;51.580;4.656;2023-02-28T08:19:00;103153.59;;;2.25;100.00
69306;BME280;56427;51.580;4.656;2023-02-28T08:21:25;103150.34;;;2.11;100.00
69306;BME280;56427;51.580;4.656;2023-02-28T08:23:51;103147.88;;;2.01;100.00
69306;BME280;56427;51.580;4.656;2023-02-28T08:26:17;103146.13;;;2.03;100.00
69306;BME280;56427;51.580;4.656;2023-02-28T08:28:43;103150.09;;;2.34;100.00
69306;BME280;56427;51.580;4.656;2023-02-28T08:31:11;103145.09;;;2.21;100.00
69306;BME280;56427;51.580;4.656;2023-02-28T08:33:37;103154.34;;;2.35;100.00
69306;BME280;56427;51.580;4.656;2023-02-28T08:36:04;103158.50;;;2.47;100.00
69306;BME280;56427;51.580;4.656;2023-02-28T08:38:30;103145.03;;;2.29;100.00
69306;BME280;56427;51.580;4.656;2023-02-28T08:41:00;103139.88;;;2.31;100.00
69306;BME280;56427;51.580;4.656;2023-02-28T08:43:26;103129.81;;;2.84;100.00
69306;BME280;56427;51.580;4.656;2023-02-28T08:45:55;103134.28;;;2.69;100.00
69306;BME280;56427;51.580;4.656;2023-02-28T08:48:24;103132.56;;;2.71;100.00
69306;BME280;56427;51.580;4.656;2023-02-28T08:53:22;103123.22;;;2.66;100.00
69306;BME280;56427;51.580;4.656;2023-02-28T08:56:04;103130.09;;;2.64;100.00
69306;BME280;56427;51.580;4.656;2023-02-28T08:58:30;103116.56;;;2.51;95.30
69306;BME280;56427;51.580;4.656;2023-02-28T09:00:56;103121.59;;;2.58;93.90
69306;BME280;56427;51.580;4.656;2023-02-28T09:03:22;103121.75;;;2.46;90.45
69306;BME280;56427;51.580;4.656;2023-02-28T09:05:57;103124.28;;;2.48;88.71
69306;BME280;56427;51.580;4.656;2023-02-28T09:08:24;103126.75;;;2.58;90.55
69306;BME280;56427;51.580;4.656;2023-02-28T09:10:50;103120.44;;;2.81;92.63
69306;BME280;56427;51.580;4.656;2023-02-28T09:13:16;103122.13;;;2.82;91.87
69306;BME280;56427;51.580;4.656;2023-02-28T09:15:41;103129.00;;;2.82;91.19
69306;BME280;56427;51.580;4.656;2023-02-28T09:18:07;103129.06;;;2.77;90.86
69306;BME280;56427;51.580;4.656;2023-02-28T09:20:32;103138.31;;;2.86;90.25
69306;BME280;56427;51.580;4.656;2023-02-28T09:22:57;103144.53;;;2.69;90.25
69306;BME280;56427;51.580;4.656;2023-02-28T09:25:23;103145.88;;;2.97;90.11
69306;BME280;56427;51.580;4.656;2023-02-28T09:27:48;103146.44;;;3.16;91.09
69306;BME280;56427;51.580;4.656;2023-02-28T09:30:14;103140.56;;;3.09;89.11
69306;BME280;56427;51.580;4.656;2023-02-28T09:32:40;103133.25;;;3.40;84.36
69306;BME280;56427;51.580;4.656;2023-02-28T09:35:05;103135.09;;;3.32;79.46
69306;BME280;56427;51.580;4.656;2023-02-28T09:37:31;103131.31;;;3.53;79.80
69306;BME280;56427;51.580;4.656;2023-02-28T09:39:57;103124.22;;;3.69;76.18
69306;BME280;56427;51.580;4.656;2023-02-28T09:42:31;103124.66;;;3.91;72.72
69306;BME280;56427;51.580;4.656;2023-02-28T09:44:58;103119.28;;;4.49;69.67
69306;BME280;56427;51.580;4.656;2023-02-28T09:47:30;103128.91;;;3.94;64.95
69306;BME280;56427;51.580;4.656;2023-02-28T09:50:06;103121.09;;;4.01;63.97
69306;BME280;56427;51.580;4.656;2023-02-28T09:52:39;103127.00;;;4.49;61.93
69306;BME280;56427;51.580;4.656;2023-02-28T09:55:19;103121.84;;;4.49;62.93
69306;BME280;56427;51.580;4.656;2023-02-28T09:57:45;103128.97;;;4.36;60.53
69306;BME280;56427;51.580;4.656;2023-02-28T10:00:24;103127.50;;;4.66;61.82
69306;BME280;56427;51.580;4.656;2023-02-28T10:05:39;103132.00;;;4.55;57.68
69306;BME280;56427;51.580;4.656;2023-02-28T10:08:19;103129.53;;;4.50;57.48
69306;BME280;56427;51.580;4.656;2023-02-28T10:10:53;103126.63;;;4.67;56.38
69306;BME280;56427;51.580;4.656;2023-02-28T10:16:35;103130.97;;;4.64;59.04
69306;BME280;56427;51.580;4.656;2023-02-28T10:21:39;103124.88;;;5.43;56.92
69306;BME280;56427;51.580;4.656;2023-02-28T10:27:20;103112.34;;;4.91;55.68
69306;BME280;56427;51.580;4.656;2023-02-28T10:29:49;103110.34;;;4.24;55.15
69306;BME280;56427;51.580;4.656;2023-02-28T10:32:40;103101.13;;;4.56;56.85
69306;BME280;56427;51.580;4.656;2023-02-28T10:37:58;103099.19;;;5.74;52.87
69306;BME280;56427;51.580;4.656;2023-02-28T10:40:26;103105.94;;;5.45;52.66
69306;BME280;56427;51.580;4.656;2023-02-28T10:45:24;103090.97;;;5.25;52.74
69306;BME280;56427;51.580;4.656;2023-02-28T10:53:07;103093.97;;;5.08;51.99
69306;BME280;56427;51.580;4.656;2023-02-28T10:55:33;103091.53;;;5.71;54.08
69306;BME280;56427;51.580;4.656;2023-02-28T10:57:59;103088.69;;;5.80;53.68
69306;BME280;56427;51.580;4.656;2023-02-28T11:00:25;103090.34;;;5.50;52.49
69306;BME280;56427;51.580;4.656;2023-02-28T11:02:52;103081.56;;;5.90;52.81
69306;BME280;56427;51.580;4.656;2023-02-28T11:05:43;103080.22;;;5.77;51.04
69306;BME280;56427;51.580;4.656;2023-02-28T11:08:15;103083.28;;;5.91;51.06
69306;BME280;56427;51.580;4.656;2023-02-28T11:10:47;103086.28;;;5.76;51.17
69306;BME280;56427;51.580;4.656;2023-02-28T11:13:20;103079.69;;;5.95;50.52
69306;BME280;56427;51.580;4.656;2023-02-28T11:15:55;103079.69;;;5.29;50.34
69306;BME280;56427;51.580;4.656;2023-02-28T11:21:01;103074.41;;;5.00;50.84
69306;BME280;56427;51.580;4.656;2023-02-28T11:23:32;103067.84;;;5.24;51.05
69306;BME280;56427;51.580;4.656;2023-02-28T11:26:01;103073.75;;;5.93;52.16
69306;BME280;56427;51.580;4.656;2023-02-28T11:28:33;103074.16;;;5.46;50.96
69306;BME280;56427;51.580;4.656;2023-02-28T11:33:53;103073.47;;;5.72;48.94
69306;BME280;56427;51.580;4.656;2023-02-28T11:36:24;103071.59;;;5.45;48.63
69306;BME280;56427;51.580;4.656;2023-02-28T11:38:51;103068.97;;;5.48;50.12
69306;BME280;56427;51.580;4.656;2023-02-28T11:49:34;103073.19;;;5.49;50.66
69306;BME280;56427;51.580;4.656;2023-02-28T11:52:46;103069.94;;;5.42;49.68
69306;BME280;56427;51.580;4.656;2023-02-28T12:06:15;103056.53;;;5.29;46.38
69306;BME280;56427;51.580;4.656;2023-02-28T12:11:56;103051.00;;;4.74;46.78
69306;BME280;56427;51.580;4.656;2023-02-28T12:14:34;103048.69;;;5.34;47.38
69306;BME280;56427;51.580;4.656;2023-02-28T12:26:04;103033.94;;;5.41;47.02
69306;BME280;56427;51.580;4.656;2023-02-28T12:28:39;103026.09;;;5.45;46.11
69306;BME280;56427;51.580;4.656;2023-02-28T12:31:20;103024.84;;;6.21;47.00
69306;BME280;56427;51.580;4.656;2023-02-28T12:33:52;103019.72;;;5.90;46.38
69306;BME280;56427;51.580;4.656;2023-02-28T12:36:19;103026.44;;;5.64;45.14
69306;BME280;56427;51.580;4.656;2023-02-28T12:39:14;103014.22;;;5.72;45.30
69306;BME280;56427;51.580;4.656;2023-02-28T12:41:45;103023.94;;;5.93;46.21
69306;BME280;56427;51.580;4.656;2023-02-28T12:46:48;103025.84;;;6.17;46.25
69306;BME280;56427;51.580;4.656;2023-02-28T12:49:39;103006.25;;;5.49;44.63
69306;BME280;56427;51.580;4.656;2023-02-28T12:52:07;103019.94;;;5.18;45.01
69306;BME280;56427;51.580;4.656;2023-02-28T12:55:18;103021.50;;;5.57;45.37
69306;BME280;56427;51.580;4.656;2023-02-28T13:00:15;103007.84;;;6.44;46.00
69306;BME280;56427;51.580;4.656;2023-02-28T13:05:46;103006.50;;;5.40;45.08
69306;BME280;56427;51.580;4.656;2023-02-28T13:11:43;102989.91;;;5.81;45.65
69306;BME280;56427;51.580;4.656;2023-02-28T13:14:37;102982.63;;;5.97;46.22
69306;BME280;56427;51.580;4.656;2023-02-28T13:19:43;102978.69;;;6.42;44.22
69306;BME280;56427;51.580;4.656;2023-02-28T13:22:19;102979.63;;;6.39;44.13
69306;BME280;56427;51.580;4.656;2023-02-28T13:27:54;102981.63;;;6.01;43.04
69306;BME280;56427;51.580;4.656;2023-02-28T13:35:45;102968.03;;;6.24;43.69
69306;BME280;56427;51.580;4.656;2023-02-28T13:38:23;102990.25;;;6.00;42.99
69306;BME280;56427;51.580;4.656;2023-02-28T13:40:49;102980.91;;;5.96;44.24
69306;BME280;56427;51.580;4.656;2023-02-28T13:43:16;102968.03;;;5.96;43.89
69306;BME280;56427;51.580;4.656;2023-02-28T13:46:07;102961.31;;;5.90;43.38
69306;BME280;56427;51.580;4.656;2023-02-28T13:48:35;102964.97;;;5.82;44.18
69306;BME280;56427;51.580;4.656;2023-02-28T13:51:40;102962.72;;;5.71;44.72
69306;BME280;56427;51.580;4.656;2023-02-28T13:54:34;102962.06;;;5.94;45.68
69306;BME280;56427;51.580;4.656;2023-02-28T14:05:45;102961.44;;;5.86;45.93
69306;BME280;56427;51.580;4.656;2023-02-28T14:08:20;102961.75;;;6.05;46.17
69306;BME280;56427;51.580;4.656;2023-02-28T14:11:03;102965.28;;;6.02;44.91
69306;BME280;56427;51.580;4.656;2023-02-28T14:13:43;102964.72;;;5.91;45.52
69306;BME280;56427;51.580;4.656;2023-02-28T14:16:17;102949.94;;;5.98;45.36
69306;BME280;56427;51.580;4.656;2023-02-28T14:18:51;102955.25;;;5.92;45.50
69306;BME280;56427;51.580;4.656;2023-02-28T14:21:26;102948.63;;;6.13;46.26
69306;BME280;56427;51.580;4.656;2023-02-28T14:37:53;102961.09;;;5.67;45.64
69306;BME280;56427;51.580;4.656;2023-02-28T14:40:33;102952.72;;;5.90;46.08
69306;BME280;56427;51.580;4.656;2023-02-28T14:43:03;102952.00;;;5.85;45.33
69306;BME280;56427;51.580;4.656;2023-02-28T14:45:30;102950.13;;;5.90;45.34
69306;BME280;56427;51.580;4.656;2023-02-28T14:47:57;102953.41;;;5.65;44.94
69306;BME280;56427;51.580;4.656;2023-02-28T14:50:35;102938.69;;;5.39;44.94
69306;BME280;56427;51.580;4.656;2023-02-28T14:53:09;102941.66;;;5.57;45.73
69306;BME280;56427;51.580;4.656;2023-02-28T14:55:44;102949.59;;;5.79;46.50
69306;BME280;56427;51.580;4.656;2023-02-28T14:58:22;102930.47;;;5.58;45.63
69306;BME280;56427;51.580;4.656;2023-02-28T15:00:49;102939.81;;;5.90;45.86
69306;BME280;56427;51.580;4.656;2023-02-28T15:05:57;102946.53;;;5.96;46.16
69306;BME280;56427;51.580;4.656;2023-02-28T15:08:23;102941.81;;;5.80;47.05
69306;BME280;56427;51.580;4.656;2023-02-28T15:13:18;102939.69;;;5.65;46.97
69306;BME280;56427;51.580;4.656;2023-02-28T15:15:56;102941.00;;;5.80;46.50
69306;BME280;56427;51.580;4.656;2023-02-28T15:18:53;102941.69;;;5.85;47.18
69306;BME280;56427;51.580;4.656;2023-02-28T15:21:29;102935.97;;;5.75;46.63
69306;BME280;56427;51.580;4.656;2023-02-28T15:24:15;102934.13;;;5.49;46.83
69306;BME280;56427;51.580;4.656;2023-02-28T15:26:52;102933.25;;;5.50;47.55
69306;BME280;56427;51.580;4.656;2023-02-28T15:29:21;102935.75;;;5.53;47.19
69306;BME280;56427;51.580;4.656;2023-02-28T15:31:50;102923.44;;;5.33;47.64
69306;BME280;56427;51.580;4.656;2023-02-28T15:34:28;102937.09;;;5.66;47.47